createdAt,value
2023-01-13T00:00:20.380Z,7.76
2023-01-13T00:02:46.864Z,7.74
2023-01-13T00:05:13.235Z,7.81
2023-01-13T00:07:43.224Z,7.80
2023-01-13T00:10:10.929Z,7.79
2023-01-13T00:12:41.792Z,7.79
2023-01-13T00:15:09.418Z,7.76
2023-01-13T00:17:36.136Z,7.78
2023-01-13T00:20:02.601Z,7.73
2023-01-13T00:22:29.285Z,7.81
2023-01-13T00:24:58.050Z,7.80
2023-01-13T00:27:25.220Z,7.84
2023-01-13T00:29:51.539Z,7.84
2023-01-13T00:32:17.849Z,7.87
2023-01-13T00:34:44.169Z,7.83
2023-01-13T00:37:12.899Z,7.88
2023-01-13T00:39:39.212Z,7.84
2023-01-13T00:42:24.016Z,7.91
2023-01-13T00:44:50.321Z,7.95
2023-01-13T00:47:16.855Z,7.93
2023-01-13T00:49:43.169Z,8.01
2023-01-13T00:52:09.480Z,8.08
2023-01-13T00:54:35.791Z,8.16
2023-01-13T00:57:02.283Z,8.16
2023-01-13T00:59:28.587Z,8.18
2023-01-13T01:01:55.146Z,8.22
2023-01-13T01:04:21.542Z,8.18
2023-01-13T01:06:47.980Z,8.23
2023-01-13T01:09:15.926Z,8.25
2023-01-13T01:11:43.143Z,8.19
2023-01-13T01:14:12.302Z,8.29
2023-01-13T01:16:40.667Z,8.28
2023-01-13T01:19:07.813Z,8.29
2023-01-13T01:21:34.551Z,8.31
2023-01-13T01:24:02.561Z,8.30
2023-01-13T01:26:30.018Z,8.30
2023-01-13T01:28:56.754Z,8.26
2023-01-13T01:31:26.317Z,8.25
2023-01-13T01:33:54.059Z,8.28
2023-01-13T01:36:22.076Z,8.26
2023-01-13T01:38:49.798Z,8.33
2023-01-13T01:41:22.208Z,8.28
2023-01-13T01:43:59.393Z,8.33
2023-01-13T01:46:40.587Z,8.28
2023-01-13T01:49:27.826Z,8.22
2023-01-13T01:52:05.878Z,8.19
2023-01-13T01:55:04.671Z,8.20
2023-01-13T01:57:37.026Z,8.20
2023-01-13T02:00:04.803Z,8.14
2023-01-13T02:02:31.776Z,8.16
2023-01-13T02:04:59.119Z,8.18
2023-01-13T02:07:31.812Z,8.18
2023-01-13T02:10:02.689Z,8.22
2023-01-13T02:12:29.279Z,8.23
2023-01-13T02:14:59.418Z,8.33
2023-01-13T02:17:59.050Z,8.42
2023-01-13T02:21:01.386Z,8.46
2023-01-13T02:23:52.265Z,8.45
2023-01-13T02:26:45.008Z,8.46
2023-01-13T02:30:08.191Z,8.50
2023-01-13T02:32:44.374Z,8.45
2023-01-13T02:35:22.539Z,8.51
2023-01-13T02:37:50.006Z,8.53
2023-01-13T02:40:37.103Z,8.56
2023-01-13T02:43:33.285Z,8.62
2023-01-13T02:46:14.420Z,8.58
2023-01-13T02:48:44.448Z,8.65
2023-01-13T02:51:16.047Z,8.64
2023-01-13T02:53:50.694Z,8.71
2023-01-13T02:56:17.935Z,8.64
2023-01-13T02:58:46.779Z,8.63
2023-01-13T03:01:13.246Z,8.65
2023-01-13T03:03:39.698Z,8.60
2023-01-13T03:06:37.037Z,8.54
2023-01-13T03:09:15.529Z,8.49
2023-01-13T03:12:00.899Z,8.41
2023-01-13T03:14:33.682Z,8.30
2023-01-13T03:17:28.957Z,8.43
2023-01-13T03:20:18.498Z,8.41
2023-01-13T03:23:00.948Z,8.34
2023-01-13T03:25:31.970Z,8.30
2023-01-13T03:28:09.761Z,8.31
2023-01-13T03:30:44.591Z,8.24
2023-01-13T03:33:17.915Z,8.22
2023-01-13T03:35:48.124Z,8.16
2023-01-13T03:38:21.721Z,8.06
2023-01-13T03:40:53.490Z,8.07
2023-01-13T03:43:49.451Z,8.12
2023-01-13T03:46:23.210Z,8.16
2023-01-13T03:48:54.665Z,8.07
2023-01-13T03:51:25.261Z,8.17
2023-01-13T03:53:57.870Z,8.22
2023-01-13T03:56:33.944Z,8.21
2023-01-13T03:59:04.974Z,8.12
2023-01-13T04:02:01.220Z,8.15
2023-01-13T04:04:39.118Z,8.14
2023-01-13T04:07:08.438Z,8.20
2023-01-13T04:09:51.335Z,8.21
2023-01-13T04:12:49.083Z,8.24
2023-01-13T04:15:24.098Z,8.27
2023-01-13T04:17:51.586Z,8.33
2023-01-13T04:20:17.992Z,8.34
2023-01-13T04:22:44.340Z,8.34
2023-01-13T04:25:11.366Z,8.35
2023-01-13T04:27:37.740Z,8.41
2023-01-13T04:30:05.371Z,8.38
2023-01-13T04:32:31.734Z,8.39
2023-01-13T04:34:58.072Z,8.35
2023-01-13T04:37:24.424Z,8.37
2023-01-13T04:39:50.807Z,8.26
2023-01-13T04:42:17.138Z,8.24
2023-01-13T04:44:43.467Z,8.21
2023-01-13T04:47:09.807Z,8.11
2023-01-13T04:49:36.131Z,8.13
2023-01-13T04:52:03.758Z,8.17
2023-01-13T04:54:30.087Z,8.24
2023-01-13T04:56:56.417Z,8.28
2023-01-13T04:59:22.765Z,8.21
2023-01-13T05:01:49.208Z,8.17
2023-01-13T05:04:16.881Z,8.06
2023-01-13T05:06:43.239Z,8.11
2023-01-13T05:09:11.560Z,8.08
2023-01-13T05:11:56.762Z,7.98
2023-01-13T05:14:41.583Z,7.86
2023-01-13T05:17:09.489Z,7.85
2023-01-13T05:19:40.719Z,7.75
2023-01-13T05:22:25.756Z,7.71
2023-01-13T05:25:10.658Z,7.67
2023-01-13T05:27:37.019Z,7.61
2023-01-13T05:30:04.120Z,7.64
2023-01-13T05:32:30.528Z,7.62
2023-01-13T05:34:57.165Z,7.69
2023-01-13T05:37:24.229Z,7.76
2023-01-13T05:40:08.872Z,7.77
2023-01-13T05:42:53.794Z,7.82
2023-01-13T05:45:20.129Z,7.85
2023-01-13T05:47:46.471Z,7.89
2023-01-13T05:50:12.941Z,7.90
2023-01-13T05:52:39.316Z,7.87
2023-01-13T05:55:05.992Z,7.76
2023-01-13T05:57:32.294Z,7.74
2023-01-13T05:59:58.629Z,7.61
2023-01-13T06:02:26.437Z,7.57
2023-01-13T06:04:52.985Z,7.59
2023-01-13T06:07:19.426Z,7.60
2023-01-13T06:09:45.752Z,7.51
2023-01-13T06:12:12.673Z,7.59
2023-01-13T06:14:41.702Z,7.52
2023-01-13T06:17:13.036Z,7.54
2023-01-13T06:19:40.531Z,7.54
2023-01-13T06:22:17.201Z,7.66
2023-01-13T06:24:48.263Z,7.73
2023-01-13T06:27:17.481Z,7.72
2023-01-13T06:29:43.796Z,7.83
2023-01-13T06:32:16.398Z,7.72
2023-01-13T06:34:46.465Z,7.67
2023-01-13T06:37:15.199Z,7.61
2023-01-13T06:39:42.328Z,7.66
2023-01-13T06:42:27.641Z,7.69
2023-01-13T06:44:53.959Z,7.68
2023-01-13T06:47:22.277Z,7.67
2023-01-13T06:49:48.863Z,7.64
2023-01-13T06:52:15.225Z,7.61
2023-01-13T06:54:41.560Z,7.61
2023-01-13T06:57:07.997Z,7.56
2023-01-13T06:59:35.239Z,7.57
2023-01-13T07:02:02.420Z,7.63
2023-01-13T07:04:28.862Z,7.66
2023-01-13T07:06:55.338Z,7.60
2023-01-13T07:09:21.785Z,7.61
2023-01-13T07:11:48.161Z,7.60
2023-01-13T07:14:33.497Z,7.64
2023-01-13T07:16:59.838Z,7.65
2023-01-13T07:19:26.180Z,7.65
2023-01-13T07:21:53.206Z,7.80
2023-01-13T07:24:20.021Z,7.77
2023-01-13T07:26:46.457Z,7.87
2023-01-13T07:29:13.045Z,7.81
2023-01-13T07:31:39.904Z,7.81
2023-01-13T07:34:06.934Z,7.78
2023-01-13T07:36:33.820Z,7.71
2023-01-13T07:39:00.259Z,7.73
2023-01-13T07:41:45.197Z,7.77
2023-01-13T07:44:11.610Z,7.75
2023-01-13T07:46:38.785Z,7.76
2023-01-13T07:49:05.613Z,7.77
2023-01-13T07:51:32.323Z,7.81
2023-01-13T07:53:58.641Z,7.74
2023-01-13T07:56:24.990Z,7.68
2023-01-13T07:58:52.852Z,7.74
2023-01-13T08:01:20.037Z,7.82
2023-01-13T08:03:46.634Z,7.85
2023-01-13T08:06:13.967Z,7.89
2023-01-13T08:08:40.316Z,7.91
2023-01-13T08:11:08.394Z,7.94
2023-01-13T08:13:34.797Z,7.97
2023-01-13T08:16:04.513Z,7.99
2023-01-13T08:18:33.646Z,8.02
2023-01-13T08:21:06.171Z,7.91
2023-01-13T08:23:32.537Z,7.89
2023-01-13T08:26:17.047Z,7.95
2023-01-13T08:28:44.138Z,7.95
2023-01-13T08:31:13.125Z,8.00
2023-01-13T08:33:40.135Z,7.99
2023-01-13T08:36:09.121Z,7.98
2023-01-13T08:38:37.246Z,7.98
2023-01-13T08:41:15.578Z,7.97
2023-01-13T08:43:41.909Z,7.98
2023-01-13T08:46:08.497Z,8.01
2023-01-13T08:48:35.162Z,8.04
2023-01-13T08:51:06.809Z,8.12
2023-01-13T08:53:33.251Z,8.13
2023-01-13T08:55:59.633Z,8.11
2023-01-13T08:58:26.156Z,8.10
2023-01-13T09:00:52.551Z,8.11
2023-01-13T09:03:18.965Z,8.10
2023-01-13T09:05:45.334Z,8.17
2023-01-13T09:08:12.494Z,8.18
2023-01-13T09:10:40.320Z,8.17
2023-01-13T09:13:12.596Z,8.19
2023-01-13T09:15:44.361Z,8.22
2023-01-13T09:18:11.963Z,8.23
2023-01-13T09:20:38.808Z,8.26
2023-01-13T09:23:06.941Z,8.29
2023-01-13T09:25:36.712Z,8.38
2023-01-13T09:28:04.853Z,8.41
2023-01-13T09:30:31.279Z,8.49
2023-01-13T09:33:18.068Z,8.53
2023-01-13T09:35:44.928Z,8.53
2023-01-13T09:38:11.270Z,8.57
2023-01-13T09:40:41.374Z,8.59
2023-01-13T09:43:39.489Z,8.60
2023-01-13T09:46:34.370Z,8.61
2023-01-13T09:49:03.450Z,8.70
2023-01-13T09:51:40.816Z,8.82
2023-01-13T09:54:16.412Z,8.99
2023-01-13T09:56:42.965Z,9.17
2023-01-13T09:59:11.978Z,9.11
2023-01-13T10:01:59.369Z,9.17
2023-01-13T10:04:26.663Z,9.14
2023-01-13T10:06:57.641Z,9.12
2023-01-13T10:09:31.051Z,9.16
2023-01-13T10:12:18.459Z,9.36
2023-01-13T10:14:52.905Z,9.25
2023-01-13T10:17:34.868Z,9.12
2023-01-13T10:20:07.192Z,8.95
2023-01-13T10:22:42.633Z,8.69
2023-01-13T10:25:42.782Z,8.51
2023-01-13T10:28:12.685Z,8.39
2023-01-13T10:30:44.633Z,8.30
2023-01-13T10:33:17.405Z,8.39
2023-01-13T10:35:54.999Z,8.17
2023-01-13T10:38:25.936Z,8.10
2023-01-13T10:40:58.588Z,7.99
2023-01-13T10:43:26.229Z,7.93
2023-01-13T10:46:17.584Z,7.93
2023-01-13T10:48:46.649Z,7.96
2023-01-13T10:51:25.154Z,8.01
2023-01-13T10:53:57.643Z,8.01
2023-01-13T10:56:27.560Z,8.01
2023-01-13T10:59:09.949Z,7.99
2023-01-13T11:01:36.998Z,7.98
2023-01-13T11:04:26.529Z,7.87
2023-01-13T11:06:52.978Z,7.83
2023-01-13T11:09:21.043Z,7.77
2023-01-13T11:11:49.539Z,7.69
2023-01-13T11:14:39.436Z,7.68
2023-01-13T11:17:21.716Z,7.65
2023-01-13T11:19:54.003Z,7.65
2023-01-13T11:22:26.417Z,7.66
2023-01-13T11:25:05.135Z,7.75
2023-01-13T11:27:52.292Z,7.82
2023-01-13T11:30:39.883Z,7.91
2023-01-13T11:33:15.453Z,7.98
2023-01-13T11:35:58.034Z,8.14
2023-01-13T11:38:42.700Z,8.28
2023-01-13T11:41:19.027Z,8.37
2023-01-13T11:43:59.554Z,8.45
2023-01-13T11:46:27.815Z,8.44
2023-01-13T11:48:56.590Z,8.49
2023-01-13T11:51:33.401Z,8.39
2023-01-13T11:54:27.061Z,8.46
2023-01-13T11:57:17.775Z,8.53
2023-01-13T11:59:50.198Z,8.40
2023-01-13T12:02:45.684Z,8.39
2023-01-13T12:05:29.016Z,8.59
2023-01-13T12:08:46.960Z,8.65
2023-01-13T12:11:31.105Z,8.72
2023-01-13T12:14:24.519Z,8.60
2023-01-13T12:16:51.109Z,8.54
2023-01-13T12:19:30.133Z,8.54
2023-01-13T12:22:05.494Z,8.70
2023-01-13T12:25:10.979Z,8.81
2023-01-13T12:27:54.980Z,8.74
2023-01-13T12:30:27.149Z,8.63
2023-01-13T12:32:59.674Z,8.66
2023-01-13T12:35:31.772Z,8.79
2023-01-13T12:38:22.931Z,9.02
2023-01-13T12:41:10.190Z,9.28
2023-01-13T12:43:57.034Z,9.39
2023-01-13T12:46:23.357Z,9.45
2023-01-13T12:48:59.173Z,9.32
2023-01-13T12:51:33.259Z,9.20
2023-01-13T12:54:25.480Z,9.08
2023-01-13T12:56:53.868Z,9.02
2023-01-13T12:59:20.197Z,8.98
2023-01-13T13:01:48.794Z,9.03
2023-01-13T13:04:49.399Z,8.99
2023-01-13T13:07:18.534Z,9.03
2023-01-13T13:09:51.274Z,9.05
2023-01-13T13:13:07.076Z,9.12
2023-01-13T13:15:35.455Z,9.11
2023-01-13T13:18:20.877Z,9.17
2023-01-13T13:21:09.381Z,9.33
2023-01-13T13:23:50.741Z,9.36
2023-01-13T13:26:26.150Z,9.43
2023-01-13T13:29:06.723Z,9.48
2023-01-13T13:31:53.249Z,9.80
2023-01-13T13:34:33.783Z,9.64
2023-01-13T13:37:07.950Z,9.60
2023-01-13T13:39:53.632Z,9.58
2023-01-13T13:42:43.502Z,9.57
2023-01-13T13:45:40.093Z,9.56
2023-01-13T13:48:26.933Z,9.45
2023-01-13T13:51:03.766Z,9.69
2023-01-13T13:53:34.387Z,9.64
2023-01-13T13:56:05.460Z,9.77
2023-01-13T13:58:35.426Z,9.81
2023-01-13T14:01:03.702Z,9.70
2023-01-13T14:03:39.036Z,9.93
2023-01-13T14:06:07.782Z,9.89
2023-01-13T14:08:39.456Z,9.87
2023-01-13T14:11:28.878Z,10.21
2023-01-13T14:14:14.311Z,10.34
2023-01-13T14:16:41.107Z,10.35
2023-01-13T14:19:25.156Z,10.22
2023-01-13T14:21:51.525Z,10.44
2023-01-13T14:24:20.471Z,10.67
2023-01-13T14:26:51.736Z,10.63
2023-01-13T14:29:23.551Z,10.88
2023-01-13T14:31:52.486Z,11.09
2023-01-13T14:34:32.632Z,11.22
2023-01-13T14:37:00.553Z,11.14
2023-01-13T14:39:39.831Z,11.05
2023-01-13T14:42:12.508Z,10.49
2023-01-13T14:44:45.070Z,10.16
2023-01-13T14:47:20.124Z,10.09
2023-01-13T14:50:07.564Z,9.78
2023-01-13T14:52:36.416Z,9.71
2023-01-13T14:55:05.912Z,9.62
2023-01-13T14:57:41.253Z,9.56
2023-01-13T15:00:13.761Z,9.33
2023-01-13T15:02:53.430Z,9.48
2023-01-13T15:05:19.813Z,9.48
2023-01-13T15:07:52.640Z,9.35
2023-01-13T15:10:25.522Z,9.24
2023-01-13T15:12:53.925Z,9.30
2023-01-13T15:15:23.911Z,9.25
2023-01-13T15:17:51.024Z,9.34
2023-01-13T15:20:19.444Z,8.72
2023-01-13T15:22:46.973Z,8.86
2023-01-13T15:25:14.799Z,8.50
2023-01-13T15:27:44.017Z,8.60
2023-01-13T15:30:15.851Z,8.63
2023-01-13T15:32:42.834Z,7.96
2023-01-13T15:35:19.807Z,8.23
2023-01-13T15:37:47.709Z,7.74
2023-01-13T15:40:19.816Z,7.50
2023-01-13T15:43:04.921Z,7.68
2023-01-13T15:45:51.273Z,7.50
2023-01-13T15:48:20.092Z,7.60
2023-01-13T15:50:46.635Z,7.53
2023-01-13T15:53:14.486Z,7.28
2023-01-13T15:55:43.552Z,6.79
2023-01-13T15:58:12.650Z,6.73
2023-01-13T16:00:39.792Z,7.01
2023-01-13T16:03:06.446Z,6.75
2023-01-13T16:05:32.880Z,6.65
2023-01-13T16:07:59.220Z,6.67
2023-01-13T16:10:27.855Z,6.62
2023-01-13T16:12:58.164Z,6.53
2023-01-13T16:15:25.815Z,6.53
2023-01-13T16:18:03.827Z,6.59
2023-01-13T16:20:30.616Z,6.50
2023-01-13T16:22:57.011Z,6.68
2023-01-13T16:25:26.132Z,6.83
2023-01-13T16:27:52.872Z,6.66
2023-01-13T16:30:21.693Z,6.57
2023-01-13T16:32:48.127Z,6.58
2023-01-13T16:35:14.495Z,6.86
2023-01-13T16:37:40.998Z,7.02
2023-01-13T16:40:07.869Z,7.24
2023-01-13T16:42:34.191Z,7.51
2023-01-13T16:45:06.960Z,7.48
2023-01-13T16:47:34.049Z,7.34
2023-01-13T16:50:00.432Z,7.44
2023-01-13T16:52:26.807Z,7.22
2023-01-13T16:54:53.124Z,7.09
2023-01-13T16:57:19.451Z,6.73
2023-01-13T16:59:45.801Z,6.85
2023-01-13T17:02:15.004Z,6.87
2023-01-13T17:04:41.355Z,6.90
2023-01-13T17:07:08.375Z,6.84
2023-01-13T17:09:34.799Z,6.63
2023-01-13T17:12:01.394Z,6.69
2023-01-13T17:14:27.808Z,6.66
2023-01-13T17:16:57.012Z,6.72
2023-01-13T17:19:23.903Z,6.60
2023-01-13T17:21:51.016Z,6.59
2023-01-13T17:24:17.355Z,6.62
2023-01-13T17:26:48.798Z,6.69
2023-01-13T17:29:18.771Z,6.64
2023-01-13T17:31:45.184Z,6.67
2023-01-13T17:34:12.302Z,6.62
2023-01-13T17:36:38.867Z,6.65
2023-01-13T17:39:05.320Z,6.74
2023-01-13T17:41:31.743Z,6.72
2023-01-13T17:43:58.104Z,6.72
2023-01-13T17:46:24.499Z,6.77
2023-01-13T17:48:52.622Z,6.75
2023-01-13T17:51:20.110Z,6.78
2023-01-13T17:53:46.702Z,6.93
2023-01-13T17:56:15.019Z,6.98
2023-01-13T17:58:41.906Z,6.97
2023-01-13T18:01:14.783Z,7.00
2023-01-13T18:03:41.845Z,7.08
2023-01-13T18:06:14.323Z,7.13
2023-01-13T18:08:40.762Z,6.95
2023-01-13T18:11:07.101Z,6.91
2023-01-13T18:13:35.027Z,6.93
2023-01-13T18:16:13.187Z,7.02
2023-01-13T18:18:42.585Z,7.12
2023-01-13T18:21:46.000Z,7.02
2023-01-13T18:24:33.630Z,7.01
2023-01-13T18:27:19.006Z,7.19
2023-01-13T18:29:46.321Z,7.25
2023-01-13T18:32:13.090Z,7.31
2023-01-13T18:34:39.959Z,7.35
2023-01-13T18:37:08.774Z,7.51
2023-01-13T18:39:37.280Z,7.51
2023-01-13T18:42:23.462Z,7.53
2023-01-13T18:44:49.854Z,7.54
2023-01-13T18:47:16.252Z,7.60
2023-01-13T18:49:42.614Z,7.48
2023-01-13T18:52:09.051Z,7.47
2023-01-13T18:54:35.549Z,7.43
2023-01-13T18:57:02.749Z,7.51
2023-01-13T18:59:29.512Z,7.56
2023-01-13T19:01:56.010Z,7.52
2023-01-13T19:04:22.478Z,7.55
2023-01-13T19:06:51.853Z,7.63
2023-01-13T19:09:22.641Z,7.60
2023-01-13T19:11:50.371Z,7.56
2023-01-13T19:14:33.914Z,7.53
2023-01-13T19:17:02.159Z,7.56
2023-01-13T19:19:30.036Z,7.62
2023-01-13T19:21:56.433Z,7.59
2023-01-13T19:24:25.856Z,7.63
2023-01-13T19:26:53.346Z,7.63
2023-01-13T19:29:19.863Z,7.50
2023-01-13T19:31:46.228Z,7.69
2023-01-13T19:34:12.624Z,7.68
2023-01-13T19:36:39.162Z,7.70
2023-01-13T19:39:05.648Z,7.77
2023-01-13T19:41:52.971Z,7.10
2023-01-13T19:44:37.785Z,6.96
2023-01-13T19:47:04.314Z,7.08
2023-01-13T19:49:30.672Z,6.67
2023-01-13T19:51:57.065Z,6.42
2023-01-13T19:54:23.771Z,6.61
2023-01-13T19:56:50.275Z,6.53
2023-01-13T19:59:21.988Z,6.50
2023-01-13T20:01:48.641Z,6.51
2023-01-13T20:04:16.994Z,6.48
2023-01-13T20:06:43.881Z,6.23
2023-01-13T20:09:11.290Z,6.32
2023-01-13T20:11:37.855Z,6.44
2023-01-13T20:14:04.383Z,6.51
2023-01-13T20:16:32.976Z,6.37
2023-01-13T20:18:59.529Z,6.65
2023-01-13T20:21:26.449Z,6.69
2023-01-13T20:23:53.276Z,7.04
2023-01-13T20:26:20.806Z,7.05
2023-01-13T20:28:47.435Z,7.08
2023-01-13T20:31:14.641Z,6.82
2023-01-13T20:33:41.239Z,7.04
2023-01-13T20:36:08.686Z,6.99
2023-01-13T20:38:38.001Z,6.91
2023-01-13T20:41:24.817Z,7.00
2023-01-13T20:43:52.555Z,6.89
2023-01-13T20:46:19.539Z,7.02
2023-01-13T20:48:46.056Z,7.06
2023-01-13T20:51:12.431Z,7.11
2023-01-13T20:53:38.817Z,7.23
2023-01-13T20:56:06.781Z,7.20
2023-01-13T20:58:33.190Z,7.05
2023-01-13T21:01:00.175Z,6.95
2023-01-13T21:03:26.917Z,6.85
2023-01-13T21:05:53.258Z,6.81
2023-01-13T21:08:19.596Z,6.79
2023-01-13T21:10:45.933Z,6.88
2023-01-13T21:13:31.682Z,6.95
2023-01-13T21:15:58.245Z,6.83
2023-01-13T21:18:43.264Z,6.86
2023-01-13T21:21:12.378Z,6.86
2023-01-13T21:23:40.973Z,6.94
2023-01-13T21:26:08.162Z,6.99
2023-01-13T21:28:36.383Z,6.89
2023-01-13T21:31:07.381Z,6.96
2023-01-13T21:33:34.167Z,7.14
2023-01-13T21:36:08.669Z,7.43
2023-01-13T21:38:35.297Z,7.76
2023-01-13T21:41:05.445Z,8.06
2023-01-13T21:43:55.779Z,8.32
2023-01-13T21:46:42.453Z,8.43
2023-01-13T21:49:08.959Z,8.49
2023-01-13T21:51:35.976Z,8.52
2023-01-13T21:54:02.375Z,8.32
2023-01-13T21:56:28.727Z,8.22
2023-01-13T21:58:57.823Z,7.72
2023-01-13T22:01:24.251Z,7.43
2023-01-13T22:04:09.196Z,7.23
2023-01-13T22:06:35.574Z,7.09
2023-01-13T22:09:03.727Z,6.91
2023-01-13T22:11:31.789Z,6.70
2023-01-13T22:14:06.467Z,6.71
2023-01-13T22:16:41.957Z,6.74
2023-01-13T22:19:09.984Z,6.85
2023-01-13T22:21:36.766Z,6.90
2023-01-13T22:24:03.430Z,6.80
2023-01-13T22:26:29.806Z,6.88
2023-01-13T22:28:56.190Z,6.91
2023-01-13T22:31:23.666Z,6.83
2023-01-13T22:33:56.131Z,6.78
2023-01-13T22:36:26.139Z,6.73
2023-01-13T22:38:55.159Z,6.69
2023-01-13T22:41:22.146Z,6.65
2023-01-13T22:43:48.613Z,6.54
2023-01-13T22:46:15.063Z,6.47
2023-01-13T22:48:41.576Z,6.45
2023-01-13T22:51:13.572Z,6.49
2023-01-13T22:53:41.331Z,6.43
2023-01-13T22:56:09.746Z,6.36
2023-01-13T22:58:36.132Z,6.43
2023-01-13T23:01:10.772Z,6.38
2023-01-13T23:03:37.364Z,6.41
2023-01-13T23:06:04.587Z,6.37
2023-01-13T23:08:31.227Z,6.44
2023-01-13T23:11:03.182Z,6.42
2023-01-13T23:13:29.705Z,6.48
2023-01-13T23:16:00.634Z,6.53
2023-01-13T23:18:27.049Z,6.47
2023-01-13T23:20:53.461Z,6.58
2023-01-13T23:23:20.207Z,6.52
2023-01-13T23:25:55.262Z,6.47
2023-01-13T23:28:22.296Z,6.42
2023-01-13T23:30:49.634Z,6.48
2023-01-13T23:33:15.991Z,6.44
2023-01-13T23:35:42.303Z,6.43
2023-01-13T23:38:09.025Z,6.56
2023-01-13T23:40:35.592Z,6.53
2023-01-13T23:43:01.916Z,6.63
2023-01-13T23:45:28.237Z,6.62
2023-01-13T23:47:55.732Z,6.56
2023-01-13T23:50:22.070Z,6.60
2023-01-13T23:52:48.512Z,6.75
2023-01-13T23:55:14.960Z,6.91
2023-01-13T23:57:42.681Z,6.88
